KMDD/MDD METAR and TAF weather

Enter ICAO airport designator
Station Type Date Time Source
KMDD METAR 2021/09/25 02:55 UTC NOAA

KMDD 250255Z AUTO 16007KT 10SM CLR 25/07 A3007 RMK AO2 T02460073


Station Type Date Time Source
KMDD Decoded METAR 2021/09/25 02:55 UTC NOAA

Midland, Midland Airpark, TX, United States (KMDD) 32-02-11N 102-06-03W
Sep 24, 2021 - 10:55 PM EDT / 2021.09.25 0255 UTC
Wind: from the SSE (160 degrees) at 8 MPH (7 KT):0
Visibility: 10 mile(s):0
Sky conditions: clear
Temperature: 76.3 F (24.6 C)
Dew Point: 45.1 F (7.3 C)
Relative Humidity: 33%
Pressure (altimeter): 30.07 in. Hg (1018 hPa)
ob: KMDD 250255Z AUTO 16007KT 10SM CLR 25/07 A3007 RMK AO2 T02460073
cycle: 3

Station Type Date Time Source
KMDD TAF UTC NOAA

Error!

Example: see airport list